Thursday, January 17, 2019, 6:55 AM EST
Back to Local

KAUG, Augusta State Airport

Location: Augusta, ME, United States Lat: 44.317
Local Time: 6:55 AM EST (11:55 GMT) Lon: -69.8
Time Zone: US/Eastern Elev: 351 ft

Show me the last for .
Show Decoded

2019-01-17 05:53 METAR KAUG 171053Z AUTO 00000KT 10SM CLR M15/M21 A3029 RMK AO2 SLP262 T11501211
                 =
2019-01-17 04:53 METAR KAUG 170953Z AUTO 31007KT 10SM CLR M14/M21 A3026 RMK AO2 SLP253 T11441206
                 =
2019-01-17 03:53 METAR KAUG 170853Z AUTO 32006KT 10SM CLR M14/M21 A3024 RMK AO2 SLP248 T11391206
                 51034 =
2019-01-17 02:53 METAR KAUG 170753Z AUTO 31009KT 10SM CLR M13/M21 A3022 RMK AO2 SLP239 T11331206
                 =
2019-01-17 01:53 METAR KAUG 170653Z AUTO 32009KT 10SM CLR M12/M20 A3018 RMK AO2 SLP226 T11221200
                 =
2019-01-17 00:53 METAR KAUG 170553Z AUTO 32007KT 10SM CLR M11/M19 A3014 RMK AO2 SLP213 60000
                 T11111189 10000 21111 51042 =
2019-01-16 23:53 METAR KAUG 170453Z AUTO 30009G21KT 10SM CLR M09/M18 A3011 RMK AO2 PK WND
                 31026/0357 SLP202 T10941183 400111094 =
2019-01-16 22:53 METAR KAUG 170353Z AUTO 30013G20KT 10SM CLR M07/M16 A3006 RMK AO2 SLP184
                 T10721161 =
2019-01-16 21:53 METAR KAUG 170253Z AUTO 30015G31KT 10SM FEW046 M04/M15 A3002 RMK AO2 PK WND
                 31031/0250 SLP169 60000 T10441150 53047 =
2019-01-16 20:53 METAR KAUG 170153Z AUTO 28008G17KT 10SM BKN047 BKN060 M01/M11 A2994 RMK AO2
                 SLP145 T10111111 =
2019-01-16 19:53 METAR KAUG 170053Z AUTO 30007G16KT 10SM SCT044 M01/M06 A2990 RMK AO2 SNB05E14
                 SLP132 P0000 T10061061 =
2019-01-16 18:53 METAR KAUG 162353Z AUTO VRB06KT 9SM BKN043 OVC055 00/M06 A2988 RMK AO2 SNB42E51
                 SLP122 P0000 60000 T00001061 10011 21006 53026 =
2019-01-16 17:53 METAR KAUG 162253Z AUTO 23010G15KT 10SM FEW055 SCT070 00/M06 A2983 RMK AO2
                 SLP106 T00001061 =
2019-01-16 16:53 METAR KAUG 162153Z AUTO 21004KT 10SM BKN050 BKN065 00/M06 A2981 RMK AO2 SLP100
                 T00001061 =
2019-01-16 15:53 METAR KAUG 162053Z AUTO VRB05KT 10SM BKN075 01/M06 A2980 RMK AO2 SLP095
                 T00061061 50002 =
2019-01-16 14:53 METAR KAUG 161953Z AUTO 23008KT 10SM SCT039 01/M06 A2980 RMK AO2 SLP097
                 T00061061 =
2019-01-16 13:53 METAR KAUG 161853Z AUTO VRB06KT 10SM SCT040 01/M06 A2979 RMK AO2 SLP092
                 T00061061 =
2019-01-16 12:53 METAR KAUG 161753Z AUTO 25006KT 10SM CLR 01/M06 A2979 RMK AO2 SLP093 T00061056
                 10006 21044 57023 =
2019-01-16 11:53 METAR KAUG 161653Z AUTO 23009G16KT 10SM OVC041 M01/M06 A2981 RMK AO2 SLP100
                 T10061061 =
2019-01-16 10:53 METAR KAUG 161553Z AUTO 21010G20KT 10SM OVC043 M01/M06 A2984 RMK AO2 SLP109
                 T10061061 =
2019-01-16 09:53 METAR KAUG 161453Z AUTO 18009G15KT 10SM OVC033 M02/M06 A2986 RMK AO2 SLP116
                 T10171061 58019 =
2019-01-16 08:53 METAR KAUG 161353Z AUTO 20008G15KT 10SM OVC038 M03/M07 A2990 RMK AO2 SLP130
                 T10281067 =
2019-01-16 07:53 METAR KAUG 161253Z AUTO 19007KT 10SM FEW035 M04/M08 A2990 RMK AO2 SLP130
                 T10391078 =

Support USWX by starting your Amazon purchase here.